createdAt,value
2023-08-29T00:00:50.943Z,16.044006
2023-08-29T00:02:00.627Z,15.983582
2023-08-29T00:03:09.325Z,15.862732
2023-08-29T00:04:17.980Z,16.054077
2023-08-29T00:05:27.753Z,16.134644
2023-08-29T00:06:35.357Z,16.124573
2023-08-29T00:07:45.026Z,16.174927
2023-08-29T00:08:53.738Z,16.023865
2023-08-29T00:10:01.442Z,16.013794
2023-08-29T00:11:11.139Z,16.003723
2023-08-29T00:12:19.831Z,16.08429
2023-08-29T00:13:28.505Z,16.134644
2023-08-29T00:14:38.207Z,16.195068
2023-08-29T00:15:45.933Z,16.104431
2023-08-29T00:16:55.636Z,16.124573
2023-08-29T00:18:04.684Z,16.225281
2023-08-29T00:19:14.013Z,16.225281
2023-08-29T00:20:23.706Z,16.225281
2023-08-29T00:21:32.421Z,16.285706
2023-08-29T00:22:42.111Z,16.255493
2023-08-29T00:23:49.784Z,16.205139
2023-08-29T00:24:59.481Z,16.134644
2023-08-29T00:26:09.156Z,16.044006
2023-08-29T00:27:18.843Z,16.054077
2023-08-29T00:28:28.546Z,15.913086
2023-08-29T00:29:37.230Z,15.983582
2023-08-29T00:30:45.940Z,15.973511
2023-08-29T00:31:54.638Z,16.013794
2023-08-29T00:33:03.385Z,16.124573
2023-08-29T00:34:12.965Z,15.983582
2023-08-29T00:35:21.660Z,15.751953
2023-08-29T00:36:29.327Z,15.84259
2023-08-29T00:37:39.044Z,15.83252
2023-08-29T00:38:47.730Z,15.862732
2023-08-29T00:39:56.380Z,15.903015
2023-08-29T00:41:06.045Z,15.983582
2023-08-29T00:42:13.749Z,15.913086
2023-08-29T00:43:23.464Z,15.721741
2023-08-29T00:44:33.146Z,15.731812
2023-08-29T00:45:41.866Z,15.882874
2023-08-29T00:46:51.528Z,15.84259
2023-08-29T00:48:00.555Z,15.943298
2023-08-29T00:49:10.171Z,15.721741
2023-08-29T00:50:19.937Z,15.490112
2023-08-29T00:51:29.643Z,15.389404
2023-08-29T00:52:39.328Z,15.349121
2023-08-29T00:53:48.039Z,15.399475
2023-08-29T00:54:56.727Z,15.4599
2023-08-29T00:56:06.405Z,15.389404
2023-08-29T00:57:15.116Z,15.349121
2023-08-29T00:58:24.815Z,15.439758
2023-08-29T00:59:34.498Z,15.469971
2023-08-29T01:00:43.211Z,15.399475
2023-08-29T01:01:51.871Z,15.187988
2023-08-29T01:03:01.721Z,15.359192
2023-08-29T01:04:11.251Z,15.308838
2023-08-29T01:05:19.935Z,15.359192
2023-08-29T01:06:28.575Z,15.278625
2023-08-29T01:07:38.248Z,15.369263
2023-08-29T01:08:46.908Z,15.278625
2023-08-29T01:09:55.646Z,15.278625
2023-08-29T01:11:04.342Z,15.349121
2023-08-29T01:12:14.045Z,15.187988
2023-08-29T01:13:22.704Z,15.308838
2023-08-29T01:14:31.421Z,15.238342
2023-08-29T01:15:41.128Z,15.177917
2023-08-29T01:16:48.776Z,15.067139
2023-08-29T01:17:58.493Z,14.966431
2023-08-29T01:19:09.550Z,14.916077
2023-08-29T01:20:15.903Z,14.916077
2023-08-29T01:21:25.655Z,14.875793
2023-08-29T01:22:34.279Z,14.785156
2023-08-29T01:23:43.961Z,14.785156
2023-08-29T01:24:53.626Z,14.83551
2023-08-29T01:26:02.296Z,14.775085
2023-08-29T01:27:11.962Z,14.785156
2023-08-29T01:28:20.738Z,14.805298
2023-08-29T01:29:28.425Z,14.996643
2023-08-29T01:30:38.136Z,14.916077
2023-08-29T01:31:45.890Z,15.137634
2023-08-29T01:32:54.509Z,15.248413
2023-08-29T01:34:04.190Z,15.167847
2023-08-29T01:35:12.709Z,15.057068
2023-08-29T01:36:25.504Z,15.016785
2023-08-29T01:37:34.188Z,15.057068
2023-08-29T01:38:42.870Z,15.20813
2023-08-29T01:39:52.544Z,15.036926
2023-08-29T01:41:00.208Z,15.20813
2023-08-29T01:42:08.910Z,15.177917
2023-08-29T01:43:18.606Z,14.936218
2023-08-29T01:44:27.287Z,14.845581
2023-08-29T01:45:37.020Z,14.936218
2023-08-29T01:46:45.647Z,15.026855
2023-08-29T01:47:53.329Z,14.996643
2023-08-29T01:49:02.999Z,14.986572
2023-08-29T01:50:10.698Z,15.097351
2023-08-29T01:51:19.382Z,14.906006
2023-08-29T01:52:29.075Z,14.996643
2023-08-29T01:53:36.794Z,15.036926
2023-08-29T01:54:47.452Z,15.147705
2023-08-29T01:55:56.114Z,15.218201
2023-08-29T01:57:03.767Z,14.966431
2023-08-29T01:58:13.469Z,15.107422
2023-08-29T01:59:22.145Z,15.097351
2023-08-29T02:00:31.837Z,15.057068
2023-08-29T02:01:42.524Z,15.036926
2023-08-29T02:02:51.269Z,14.855652
2023-08-29T02:03:59.945Z,14.624023
2023-08-29T02:05:09.625Z,14.624023
2023-08-29T02:06:18.323Z,14.70459
2023-08-29T02:07:28.030Z,14.734802
2023-08-29T02:08:36.729Z,14.654236
2023-08-29T02:09:45.446Z,14.70459
2023-08-29T02:10:55.117Z,14.785156
2023-08-29T02:12:04.820Z,14.70459
2023-08-29T02:13:14.537Z,14.593811
2023-08-29T02:14:24.234Z,14.483032
2023-08-29T02:15:32.948Z,14.442749
2023-08-29T02:16:41.668Z,14.513245
2023-08-29T02:17:50.352Z,14.291687
2023-08-29T02:18:59.083Z,14.402466
2023-08-29T02:20:08.762Z,14.442749
2023-08-29T02:21:16.447Z,14.513245
2023-08-29T02:22:26.117Z,14.432678
2023-08-29T02:23:34.866Z,14.684448
2023-08-29T02:24:43.541Z,14.634094
2023-08-29T02:25:53.248Z,14.634094
2023-08-29T02:27:01.954Z,14.593811
2023-08-29T02:28:11.664Z,14.694519
2023-08-29T02:29:21.357Z,14.624023
2023-08-29T02:30:29.035Z,14.603882
2023-08-29T02:31:38.742Z,14.442749
2023-08-29T02:32:47.478Z,14.231262
2023-08-29T02:33:57.122Z,14.281616
2023-08-29T02:35:06.807Z,14.412537
2023-08-29T02:36:14.520Z,14.412537
2023-08-29T02:37:23.224Z,14.483032
2023-08-29T02:38:32.934Z,14.483032
2023-08-29T02:39:40.604Z,14.372253
2023-08-29T02:40:50.261Z,14.352112
2023-08-29T02:41:57.942Z,14.483032
2023-08-29T02:43:05.643Z,14.533386
2023-08-29T02:44:15.361Z,14.45282
2023-08-29T02:45:24.077Z,14.33197
2023-08-29T02:46:32.793Z,14.412537
2023-08-29T02:47:42.451Z,14.301758
2023-08-29T02:48:50.159Z,14.291687
2023-08-29T02:49:59.872Z,14.33197
2023-08-29T02:51:09.560Z,14.261475
2023-08-29T02:52:18.335Z,14.140625
2023-08-29T02:53:28.114Z,14.150696
2023-08-29T02:54:36.833Z,14.231262
2023-08-29T02:55:45.535Z,14.301758
2023-08-29T02:56:55.230Z,14.231262
2023-08-29T02:58:02.902Z,14.402466
2023-08-29T02:59:11.622Z,14.362183
2023-08-29T03:00:21.391Z,14.45282
2023-08-29T03:01:30.039Z,14.543457
2023-08-29T03:02:38.798Z,14.543457
2023-08-29T03:03:48.486Z,14.402466
2023-08-29T03:04:57.175Z,14.372253
2023-08-29T03:06:06.868Z,14.352112
2023-08-29T03:07:15.550Z,14.352112
2023-08-29T03:08:23.234Z,14.33197
2023-08-29T03:09:32.984Z,14.231262
2023-08-29T03:10:42.663Z,14.20105
2023-08-29T03:11:51.369Z,14.281616
2023-08-29T03:13:01.053Z,14.321899
2023-08-29T03:14:10.761Z,14.33197
2023-08-29T03:15:20.511Z,14.321899
2023-08-29T03:16:30.198Z,14.301758
2023-08-29T03:17:39.928Z,14.291687
2023-08-29T03:18:49.573Z,14.362183
2023-08-29T03:19:57.253Z,14.20105
2023-08-29T03:21:05.959Z,14.291687
2023-08-29T03:22:15.665Z,14.170837
2023-08-29T03:23:23.336Z,14.150696
2023-08-29T03:24:33.031Z,14.0802
2023-08-29T03:25:41.765Z,14.110413
2023-08-29T03:26:50.471Z,14.251404
2023-08-29T03:28:00.230Z,14.251404
2023-08-29T03:29:09.925Z,14.221191
2023-08-29T03:30:18.661Z,14.321899
2023-08-29T03:31:28.331Z,14.45282
2023-08-29T03:32:38.124Z,14.432678
2023-08-29T03:33:47.713Z,14.321899
2023-08-29T03:34:57.425Z,14.321899
2023-08-29T03:36:07.094Z,14.301758
2023-08-29T03:37:15.822Z,14.321899
2023-08-29T03:38:25.564Z,14.301758
2023-08-29T03:39:34.244Z,14.321899
2023-08-29T03:40:43.954Z,14.442749
2023-08-29T03:41:51.696Z,14.281616
2023-08-29T03:43:01.411Z,14.33197
2023-08-29T03:44:11.081Z,14.483032
2023-08-29T03:45:20.746Z,14.634094
2023-08-29T03:46:30.557Z,14.593811
2023-08-29T03:47:39.180Z,14.503174
2023-08-29T03:48:48.809Z,14.624023
2023-08-29T03:49:58.478Z,14.553528
2023-08-29T03:51:07.365Z,14.412537
2023-08-29T03:52:16.865Z,14.352112
2023-08-29T03:53:26.559Z,14.412537
2023-08-29T03:54:35.255Z,14.483032
2023-08-29T03:55:44.935Z,14.654236
2023-08-29T03:56:51.627Z,14.684448
2023-08-29T03:58:01.413Z,14.694519
2023-08-29T03:59:11.046Z,14.694519
2023-08-29T04:00:18.694Z,14.734802
2023-08-29T04:01:28.374Z,14.654236
2023-08-29T04:02:37.107Z,14.694519
2023-08-29T04:03:45.929Z,14.805298
2023-08-29T04:04:55.704Z,14.734802
2023-08-29T04:06:04.177Z,14.724731
2023-08-29T04:07:13.856Z,14.815369
2023-08-29T04:08:23.523Z,14.765015
2023-08-29T04:09:32.211Z,14.664307
2023-08-29T04:10:41.937Z,14.765015
2023-08-29T04:11:51.670Z,14.785156
2023-08-29T04:13:00.510Z,14.634094
2023-08-29T04:14:10.207Z,14.624023
2023-08-29T04:15:18.899Z,14.70459
2023-08-29T04:16:27.609Z,14.855652
2023-08-29T04:17:37.444Z,14.885864
2023-08-29T04:18:45.018Z,14.855652
2023-08-29T04:19:54.668Z,14.654236
2023-08-29T04:21:03.422Z,14.603882
2023-08-29T04:22:12.081Z,14.734802
2023-08-29T04:23:21.796Z,14.765015
2023-08-29T04:24:30.502Z,14.483032
2023-08-29T04:25:39.195Z,14.58374
2023-08-29T04:26:48.870Z,14.694519
2023-08-29T04:27:56.550Z,14.70459
2023-08-29T04:29:06.516Z,14.805298
2023-08-29T04:30:15.200Z,14.805298
2023-08-29T04:31:23.934Z,14.634094
2023-08-29T04:32:32.565Z,14.593811
2023-08-29T04:33:41.245Z,14.483032
2023-08-29T04:34:50.980Z,14.684448
2023-08-29T04:36:00.625Z,14.684448
2023-08-29T04:37:10.338Z,14.58374
2023-08-29T04:38:20.082Z,14.603882
2023-08-29T04:39:29.786Z,14.58374
2023-08-29T04:40:38.577Z,14.624023
2023-08-29T04:41:48.264Z,14.513245
2023-08-29T04:42:55.943Z,14.634094
2023-08-29T04:44:05.802Z,14.543457
2023-08-29T04:45:15.509Z,14.603882
2023-08-29T04:46:24.222Z,14.634094
2023-08-29T04:47:33.949Z,14.775085
2023-08-29T04:48:42.635Z,14.855652
2023-08-29T04:49:50.302Z,14.855652
2023-08-29T04:51:00.001Z,14.664307
2023-08-29T04:52:08.709Z,14.684448
2023-08-29T04:53:18.379Z,14.734802
2023-08-29T04:54:28.349Z,14.734802
2023-08-29T04:55:36.728Z,14.765015
2023-08-29T04:56:45.401Z,14.654236
2023-08-29T04:57:55.142Z,14.634094
2023-08-29T04:59:02.783Z,14.664307
2023-08-29T05:00:11.470Z,14.70459
2023-08-29T05:01:21.189Z,14.664307
2023-08-29T05:02:29.052Z,14.603882
2023-08-29T05:03:38.822Z,14.634094
2023-08-29T05:04:48.451Z,14.533386
2023-08-29T05:05:56.128Z,14.58374
2023-08-29T05:07:05.822Z,14.734802
2023-08-29T05:08:15.486Z,14.654236
2023-08-29T05:09:25.230Z,14.553528
2023-08-29T05:10:34.887Z,14.70459
2023-08-29T05:11:42.575Z,14.83551
2023-08-29T05:12:52.298Z,14.95636
2023-08-29T05:14:03.000Z,15.026855
2023-08-29T05:15:10.804Z,15.08728
2023-08-29T05:16:20.557Z,15.107422
2023-08-29T05:17:30.224Z,14.875793
2023-08-29T05:18:39.845Z,14.906006
2023-08-29T05:19:49.575Z,14.885864
2023-08-29T05:20:57.297Z,14.815369
2023-08-29T05:22:06.975Z,14.70459
2023-08-29T05:23:15.710Z,14.603882
2023-08-29T05:24:23.442Z,14.513245
2023-08-29T05:25:33.153Z,14.654236
2023-08-29T05:26:40.867Z,14.654236
2023-08-29T05:27:49.551Z,14.765015
2023-08-29T05:28:59.233Z,14.734802
2023-08-29T05:30:08.969Z,14.916077
2023-08-29T05:31:18.696Z,14.936218
2023-08-29T05:32:27.672Z,14.875793
2023-08-29T05:33:35.001Z,14.95636
2023-08-29T05:34:44.683Z,14.95636
2023-08-29T05:35:52.390Z,15.097351
2023-08-29T05:37:01.026Z,15.08728
2023-08-29T05:38:10.702Z,15.026855
2023-08-29T05:39:18.475Z,15.036926
2023-08-29T05:40:28.149Z,15.167847
2023-08-29T05:41:36.832Z,15.369263
2023-08-29T05:42:44.535Z,15.520325
2023-08-29T05:43:54.306Z,15.59082
2023-08-29T05:45:02.026Z,15.651245
2023-08-29T05:46:10.681Z,15.469971
2023-08-29T05:47:20.372Z,15.349121
2023-08-29T05:48:30.103Z,15.248413
2023-08-29T05:49:39.835Z,15.177917
2023-08-29T05:50:48.516Z,15.177917
2023-08-29T05:51:57.174Z,15.20813
2023-08-29T05:53:06.928Z,15.20813
2023-08-29T05:54:15.637Z,15.097351
2023-08-29T05:55:24.358Z,15.20813
2023-08-29T05:56:33.995Z,15.278625
2023-08-29T05:57:43.681Z,15.147705
2023-08-29T05:58:53.349Z,15.167847
2023-08-29T06:00:03.046Z,15.167847
2023-08-29T06:01:11.805Z,15.248413
2023-08-29T06:02:21.448Z,15.308838
2023-08-29T06:03:30.224Z,15.349121
2023-08-29T06:04:38.852Z,15.349121
2023-08-29T06:05:48.514Z,15.399475
2023-08-29T06:06:56.281Z,15.469971
2023-08-29T06:08:17.287Z,15.369263
2023-08-29T06:09:16.648Z,15.268555
2023-08-29T06:10:24.293Z,15.308838
2023-08-29T06:11:34.007Z,15.389404
2023-08-29T06:12:42.738Z,15.268555
2023-08-29T06:13:52.823Z,15.167847
2023-08-29T06:15:02.522Z,15.08728
2023-08-29T06:16:12.206Z,15.167847
2023-08-29T06:17:20.878Z,15.177917
2023-08-29T06:18:29.557Z,15.08728
2023-08-29T06:19:37.263Z,15.238342
2023-08-29T06:20:47.002Z,15.167847
2023-08-29T06:21:56.677Z,14.996643
2023-08-29T06:23:05.355Z,14.906006
2023-08-29T06:24:15.059Z,14.885864
2023-08-29T06:25:24.731Z,15.107422
2023-08-29T06:26:34.466Z,15.137634
2023-08-29T06:27:43.169Z,15.147705
2023-08-29T06:28:50.873Z,15.288696
2023-08-29T06:30:00.554Z,15.248413
2023-08-29T06:31:09.304Z,15.308838
2023-08-29T06:32:17.967Z,15.248413
2023-08-29T06:33:27.688Z,15.429688
2023-08-29T06:34:35.407Z,15.328979
2023-08-29T06:35:45.098Z,15.469971
2023-08-29T06:36:53.767Z,15.369263
2023-08-29T06:38:01.529Z,15.218201
2023-08-29T06:39:11.278Z,15.288696
2023-08-29T06:40:19.003Z,15.429688
2023-08-29T06:41:27.711Z,15.419617
2023-08-29T06:42:37.411Z,15.419617
2023-08-29T06:43:47.124Z,15.4599
2023-08-29T06:44:56.759Z,15.570679
2023-08-29T06:46:05.457Z,15.570679
2023-08-29T06:47:14.135Z,15.510254
2023-08-29T06:48:23.882Z,15.4599
2023-08-29T06:49:33.553Z,15.510254
2023-08-29T06:50:42.218Z,15.540466
2023-08-29T06:51:51.934Z,15.439758
2023-08-29T06:52:59.586Z,15.369263
2023-08-29T06:54:09.329Z,15.520325
2023-08-29T06:55:17.996Z,15.429688
2023-08-29T06:56:25.682Z,15.369263
2023-08-29T06:57:35.340Z,15.550537
2023-08-29T06:58:45.034Z,15.58075
2023-08-29T06:59:52.784Z,15.621033
2023-08-29T07:01:02.436Z,15.731812
2023-08-29T07:02:12.073Z,15.751953
2023-08-29T07:03:19.865Z,15.651245
2023-08-29T07:04:29.441Z,15.4599
2023-08-29T07:05:37.175Z,15.540466
2023-08-29T07:06:45.843Z,15.520325
2023-08-29T07:07:55.550Z,15.469971
2023-08-29T07:09:03.250Z,15.520325
2023-08-29T07:10:12.901Z,15.610962
2023-08-29T07:11:22.651Z,15.58075
2023-08-29T07:12:31.320Z,15.59082
2023-08-29T07:13:41.048Z,15.751953
2023-08-29T07:14:48.706Z,15.641174
2023-08-29T07:15:58.385Z,15.268555
2023-08-29T07:17:09.889Z,15.278625
2023-08-29T07:18:18.012Z,15.349121
2023-08-29T07:19:27.695Z,15.349121
2023-08-29T07:20:37.374Z,15.439758
2023-08-29T07:21:46.068Z,15.490112
2023-08-29T07:22:56.768Z,15.641174
2023-08-29T07:24:06.479Z,15.490112
2023-08-29T07:25:16.196Z,15.610962
2023-08-29T07:26:25.890Z,15.550537
2023-08-29T07:27:33.593Z,15.570679
2023-08-29T07:28:43.267Z,15.570679
2023-08-29T07:29:52.037Z,15.469971
2023-08-29T07:31:00.767Z,15.490112
2023-08-29T07:32:10.425Z,15.389404
2023-08-29T07:33:18.082Z,15.328979
2023-08-29T07:34:27.793Z,15.137634
2023-08-29T07:35:37.548Z,15.238342
2023-08-29T07:36:45.273Z,15.399475
2023-08-29T07:37:54.998Z,15.641174
2023-08-29T07:39:02.802Z,15.58075
2023-08-29T07:40:10.456Z,15.681458
2023-08-29T07:41:20.219Z,15.671387
2023-08-29T07:42:28.951Z,15.540466
2023-08-29T07:43:37.665Z,15.510254
2023-08-29T07:44:47.331Z,15.520325
2023-08-29T07:45:57.101Z,15.520325
2023-08-29T07:47:13.855Z,15.570679
2023-08-29T07:48:17.448Z,15.671387
2023-08-29T07:49:25.136Z,15.510254
2023-08-29T07:50:34.893Z,15.510254
2023-08-29T07:51:43.591Z,15.550537
2023-08-29T07:52:52.294Z,15.469971
2023-08-29T07:54:02.015Z,15.621033
2023-08-29T07:55:10.723Z,15.651245
2023-08-29T07:56:20.415Z,15.84259
2023-08-29T07:57:30.126Z,15.731812
2023-08-29T07:58:38.790Z,15.651245
2023-08-29T07:59:48.522Z,15.792236
2023-08-29T08:00:56.234Z,16.023865
2023-08-29T08:02:04.919Z,15.953369
2023-08-29T08:03:14.626Z,15.83252
2023-08-29T08:04:23.288Z,15.772095
2023-08-29T08:05:32.994Z,15.721741
2023-08-29T08:06:41.689Z,15.731812
2023-08-29T08:07:50.384Z,15.973511
2023-08-29T08:09:00.073Z,16.013794
2023-08-29T08:10:07.756Z,16.054077
2023-08-29T08:11:17.675Z,16.124573
2023-08-29T08:12:28.438Z,16.09436
2023-08-29T08:13:36.100Z,16.255493
2023-08-29T08:14:45.786Z,16.34613
2023-08-29T08:15:54.533Z,16.104431
2023-08-29T08:17:05.143Z,15.913086
2023-08-29T08:18:14.867Z,15.84259
2023-08-29T08:19:22.525Z,15.772095
2023-08-29T08:20:31.197Z,15.792236
2023-08-29T08:21:40.892Z,15.772095
2023-08-29T08:22:51.562Z,15.83252
2023-08-29T08:24:01.235Z,16.044006
2023-08-29T08:25:10.908Z,16.235352
2023-08-29T08:26:18.603Z,16.305847
2023-08-29T08:27:28.284Z,16.124573
2023-08-29T08:28:35.948Z,16.124573
2023-08-29T08:29:44.607Z,16.225281
2023-08-29T08:30:53.297Z,16.124573
2023-08-29T08:32:02.018Z,16.124573
2023-08-29T08:33:11.756Z,16.164856
2023-08-29T08:34:21.370Z,16.205139
2023-08-29T08:35:31.910Z,16.104431
2023-08-29T08:36:40.710Z,15.943298
2023-08-29T08:37:50.403Z,15.973511
2023-08-29T08:39:00.250Z,15.953369
2023-08-29T08:40:09.932Z,15.943298
2023-08-29T08:41:18.591Z,15.953369
2023-08-29T08:42:28.282Z,16.013794
2023-08-29T08:43:35.989Z,16.08429
2023-08-29T08:44:44.737Z,16.003723
2023-08-29T08:45:54.430Z,16.054077
2023-08-29T08:47:02.055Z,16.09436
2023-08-29T08:48:10.864Z,16.023865
2023-08-29T08:49:20.453Z,16.044006
2023-08-29T08:50:29.186Z,16.054077
2023-08-29T08:51:38.907Z,16.013794
2023-08-29T08:52:48.544Z,16.134644
2023-08-29T08:53:57.234Z,16.054077
2023-08-29T08:55:06.924Z,16.124573
2023-08-29T08:56:16.622Z,16.235352
2023-08-29T08:57:26.370Z,16.235352
2023-08-29T08:58:36.041Z,16.104431
2023-08-29T08:59:44.726Z,16.023865
2023-08-29T09:00:52.428Z,16.013794
2023-08-29T09:02:02.177Z,16.124573
2023-08-29T09:03:09.926Z,16.164856
2023-08-29T09:04:18.560Z,16.154785
2023-08-29T09:05:28.211Z,16.225281
2023-08-29T09:06:36.874Z,16.325989
2023-08-29T09:07:46.556Z,16.376343
2023-08-29T09:08:56.217Z,16.315918
2023-08-29T09:10:03.896Z,16.305847
2023-08-29T09:11:13.548Z,16.416626
2023-08-29T09:12:22.231Z,16.607971
2023-08-29T09:13:31.980Z,16.648254
2023-08-29T09:14:41.654Z,16.738892
2023-08-29T09:15:49.442Z,16.678467
2023-08-29T09:16:58.991Z,16.900024
2023-08-29T09:18:07.830Z,16.900024
2023-08-29T09:19:17.384Z,16.829529
2023-08-29T09:20:27.055Z,16.71875
2023-08-29T09:21:36.500Z,16.708679
2023-08-29T09:22:43.387Z,16.759033
2023-08-29T09:23:53.090Z,16.759033
2023-08-29T09:25:01.814Z,16.869812
2023-08-29T09:26:11.478Z,17.061157
2023-08-29T09:27:21.152Z,16.960449
2023-08-29T09:28:28.916Z,16.900024
2023-08-29T09:29:38.474Z,16.910095
2023-08-29T09:30:46.161Z,16.8396
2023-08-29T09:31:54.822Z,16.869812
2023-08-29T09:33:04.546Z,16.900024
2023-08-29T09:34:14.186Z,16.960449
2023-08-29T09:35:23.849Z,17.061157
2023-08-29T09:36:32.517Z,16.889954
2023-08-29T09:37:41.185Z,17.081299
2023-08-29T09:38:50.919Z,17.292786
2023-08-29T09:39:58.656Z,17.292786
2023-08-29T09:41:08.285Z,17.34314
2023-08-29T09:42:17.978Z,17.393494
2023-08-29T09:43:27.666Z,17.383423
2023-08-29T09:44:36.326Z,17.333069
2023-08-29T09:45:45.058Z,17.383423
2023-08-29T09:46:52.754Z,17.262573
2023-08-29T09:48:02.491Z,17.061157
2023-08-29T09:49:11.123Z,16.960449
2023-08-29T09:50:20.792Z,16.930237
2023-08-29T09:51:30.478Z,16.859741
2023-08-29T09:52:38.185Z,16.859741
2023-08-29T09:53:46.871Z,16.889954
2023-08-29T09:54:56.684Z,16.889954
2023-08-29T09:56:04.380Z,16.708679
2023-08-29T09:57:13.020Z,16.456909
2023-08-29T09:58:21.629Z,16.406555
2023-08-29T09:59:30.418Z,16.426697
2023-08-29T10:00:40.101Z,16.507263
2023-08-29T10:01:48.796Z,16.688538
2023-08-29T10:02:58.604Z,16.789246
2023-08-29T10:04:08.300Z,16.688538
2023-08-29T10:05:15.954Z,16.859741
2023-08-29T10:06:25.613Z,16.889954
2023-08-29T10:07:33.380Z,17.010803
2023-08-29T10:08:42.049Z,17.041016
2023-08-29T10:09:52.739Z,17.020874
2023-08-29T10:11:01.414Z,17.051086
2023-08-29T10:12:11.139Z,16.859741
2023-08-29T10:13:20.820Z,16.960449
2023-08-29T10:14:28.526Z,16.8396
2023-08-29T10:15:39.030Z,16.960449
2023-08-29T10:16:46.969Z,17.010803
2023-08-29T10:17:55.602Z,16.97052
2023-08-29T10:19:05.268Z,17.121582
2023-08-29T10:20:13.317Z,16.960449
2023-08-29T10:21:22.988Z,17.051086
2023-08-29T10:22:31.720Z,17.121582
2023-08-29T10:23:40.421Z,17.081299
2023-08-29T10:24:50.117Z,17.051086
2023-08-29T10:25:57.768Z,17.202148
2023-08-29T10:27:06.454Z,16.889954
2023-08-29T10:28:16.341Z,17.010803
2023-08-29T10:29:24.889Z,17.061157
2023-08-29T10:30:34.566Z,17.302856
2023-08-29T10:31:44.272Z,17.292786
2023-08-29T10:32:53.998Z,17.262573
2023-08-29T10:34:03.700Z,17.262573
2023-08-29T10:35:11.369Z,17.393494
2023-08-29T10:36:21.028Z,17.514343
2023-08-29T10:37:30.762Z,17.453918
2023-08-29T10:38:39.458Z,17.463989
2023-08-29T10:39:49.152Z,17.564697
2023-08-29T10:40:57.861Z,17.635193
2023-08-29T10:42:07.618Z,17.494202
2023-08-29T10:43:17.565Z,17.494202
2023-08-29T10:44:27.243Z,17.705688
2023-08-29T10:45:35.940Z,17.564697
2023-08-29T10:46:45.621Z,17.463989
2023-08-29T10:47:55.315Z,17.393494
2023-08-29T10:49:05.032Z,17.544556
2023-08-29T10:50:13.736Z,17.715759
2023-08-29T10:51:22.400Z,17.564697
2023-08-29T10:52:31.104Z,17.675476
2023-08-29T10:53:40.774Z,17.85675
2023-08-29T10:54:49.911Z,17.947388
2023-08-29T10:55:59.586Z,17.947388
2023-08-29T10:57:08.288Z,17.886963
2023-08-29T10:58:15.913Z,17.9776
2023-08-29T10:59:25.618Z,17.997742
2023-08-29T11:00:35.434Z,18.078308
2023-08-29T11:01:43.953Z,17.997742
2023-08-29T11:02:53.727Z,18.007812
2023-08-29T11:04:03.323Z,17.897034
2023-08-29T11:05:13.049Z,17.826538
2023-08-29T11:06:22.786Z,17.886963
2023-08-29T11:07:31.408Z,17.705688
2023-08-29T11:08:41.078Z,17.625122
2023-08-29T11:09:49.766Z,17.333069
2023-08-29T11:10:58.540Z,17.010803
2023-08-29T11:12:08.356Z,16.930237
2023-08-29T11:13:16.980Z,16.748962
2023-08-29T11:14:26.646Z,16.829529
2023-08-29T11:15:35.333Z,16.900024
2023-08-29T11:16:44.052Z,16.869812
2023-08-29T11:17:53.758Z,16.97052
2023-08-29T11:19:02.422Z,16.910095
2023-08-29T11:20:12.114Z,17.041016
2023-08-29T11:21:21.843Z,17.081299
2023-08-29T11:22:30.894Z,17.151794
2023-08-29T11:23:40.188Z,17.383423
2023-08-29T11:24:48.896Z,17.34314
2023-08-29T11:25:57.571Z,17.60498
2023-08-29T11:27:07.239Z,17.665405
2023-08-29T11:28:15.936Z,17.776184
2023-08-29T11:29:25.604Z,17.917175
2023-08-29T11:30:43.689Z,18.048096
2023-08-29T11:31:45.952Z,18.027954
2023-08-29T11:32:55.652Z,18.09845
2023-08-29T11:34:05.297Z,18.007812
2023-08-29T11:35:15.049Z,17.9776
2023-08-29T11:36:24.780Z,17.886963
2023-08-29T11:37:32.533Z,17.796326
2023-08-29T11:38:42.219Z,17.625122
2023-08-29T11:39:52.885Z,17.635193
2023-08-29T11:41:15.059Z,17.443848
2023-08-29T11:42:37.536Z,17.715759
2023-08-29T11:43:37.806Z,17.756042
2023-08-29T11:45:06.981Z,17.776184
2023-08-29T11:45:46.202Z,17.796326
2023-08-29T11:46:54.967Z,17.776184
2023-08-29T11:48:03.696Z,17.826538
2023-08-29T11:49:13.455Z,17.695618
2023-08-29T11:50:23.125Z,17.514343
2023-08-29T11:51:32.766Z,17.463989
2023-08-29T11:52:41.496Z,17.514343
2023-08-29T11:53:51.261Z,17.443848
2023-08-29T11:55:00.922Z,17.363281
2023-08-29T11:56:09.588Z,17.625122
2023-08-29T11:57:18.275Z,17.705688
2023-08-29T11:58:28.057Z,17.705688
2023-08-29T11:59:35.706Z,17.796326
2023-08-29T12:00:45.417Z,17.84668
2023-08-29T12:01:55.134Z,17.735901
2023-08-29T12:03:03.802Z,17.635193
2023-08-29T12:04:13.552Z,17.84668
2023-08-29T12:05:23.200Z,17.866821
2023-08-29T12:06:32.893Z,17.917175
2023-08-29T12:07:42.604Z,17.816467
2023-08-29T12:08:50.292Z,17.463989
2023-08-29T12:09:59.968Z,17.645264
2023-08-29T12:11:08.685Z,17.695618
2023-08-29T12:12:17.349Z,17.756042
2023-08-29T12:13:28.046Z,17.886963
2023-08-29T12:14:37.772Z,17.9776
2023-08-29T12:15:46.433Z,17.917175
2023-08-29T12:16:56.128Z,18.038025
2023-08-29T12:18:03.865Z,18.007812
2023-08-29T12:19:13.480Z,18.007812
2023-08-29T12:20:22.176Z,17.85675
2023-08-29T12:21:29.800Z,17.564697
2023-08-29T12:22:39.504Z,17.383423
2023-08-29T12:23:49.206Z,17.192078
2023-08-29T12:24:57.865Z,17.09137
2023-08-29T12:26:07.520Z,17.202148
2023-08-29T12:27:15.219Z,17.292786
2023-08-29T12:28:24.857Z,17.443848
2023-08-29T12:29:33.584Z,17.524414
2023-08-29T12:30:41.282Z,17.393494
2023-08-29T12:31:50.957Z,17.383423
2023-08-29T12:32:59.657Z,17.514343
2023-08-29T12:34:09.404Z,17.292786
2023-08-29T12:35:19.088Z,17.423706
2023-08-29T12:36:25.773Z,17.443848
2023-08-29T12:37:35.424Z,17.564697
2023-08-29T12:38:45.089Z,17.494202
2023-08-29T12:39:52.813Z,17.463989
2023-08-29T12:41:02.469Z,17.413635
2023-08-29T12:42:12.113Z,17.514343
2023-08-29T12:43:20.777Z,17.544556
2023-08-29T12:44:30.443Z,17.705688
2023-08-29T12:45:48.908Z,17.826538
2023-08-29T12:46:49.843Z,17.816467
2023-08-29T12:47:58.513Z,17.826538
2023-08-29T12:49:08.179Z,17.85675
2023-08-29T12:50:17.855Z,17.756042
2023-08-29T12:51:27.670Z,17.886963
2023-08-29T12:52:36.312Z,17.756042
2023-08-29T12:53:44.967Z,17.695618
2023-08-29T12:54:53.710Z,17.574768
2023-08-29T12:56:01.443Z,17.514343
2023-08-29T12:57:12.178Z,17.564697
2023-08-29T12:58:19.863Z,17.645264
2023-08-29T12:59:29.548Z,17.484131
2023-08-29T13:00:39.289Z,17.413635
2023-08-29T13:01:45.924Z,17.443848
2023-08-29T13:02:55.650Z,17.333069
2023-08-29T13:04:04.297Z,17.383423
2023-08-29T13:05:12.971Z,17.333069
2023-08-29T13:06:24.396Z,17.393494
2023-08-29T13:07:32.329Z,17.232361
2023-08-29T13:08:40.945Z,17.151794
2023-08-29T13:09:50.660Z,17.081299
2023-08-29T13:11:00.288Z,17.010803